sensor_id;sensor_type;location;lat;lon;timestamp;temperature;humidity
56162;DHT22;42045;52.986;6.014;2023-04-25T00:02:10;6.20;99.90
56162;DHT22;42045;52.986;6.014;2023-04-25T00:04:35;6.10;99.90
56162;DHT22;42045;52.986;6.014;2023-04-25T00:07:03;6.10;99.90
56162;DHT22;42045;52.986;6.014;2023-04-25T00:09:29;6.00;99.90
56162;DHT22;42045;52.986;6.014;2023-04-25T00:11:55;6.00;99.90
56162;DHT22;42045;52.986;6.014;2023-04-25T00:14:21;5.90;99.90
56162;DHT22;42045;52.986;6.014;2023-04-25T00:16:47;5.90;99.90
56162;DHT22;42045;52.986;6.014;2023-04-25T00:19:13;5.80;99.90
56162;DHT22;42045;52.986;6.014;2023-04-25T00:21:39;5.80;99.90
56162;DHT22;42045;52.986;6.014;2023-04-25T00:24:06;5.80;99.90
56162;DHT22;42045;52.986;6.014;2023-04-25T00:26:34;5.80;99.90
56162;DHT22;42045;52.986;6.014;2023-04-25T00:29:00;5.80;99.90
56162;DHT22;42045;52.986;6.014;2023-04-25T00:31:26;5.80;99.90
56162;DHT22;42045;52.986;6.014;2023-04-25T00:33:52;5.80;99.90
56162;DHT22;42045;52.986;6.014;2023-04-25T00:36:18;5.90;99.90
56162;DHT22;42045;52.986;6.014;2023-04-25T00:38:44;5.90;99.90
56162;DHT22;42045;52.986;6.014;2023-04-25T00:41:10;5.90;99.90
56162;DHT22;42045;52.986;6.014;2023-04-25T00:43:36;6.00;99.90
56162;DHT22;42045;52.986;6.014;2023-04-25T00:46:03;6.00;99.90
56162;DHT22;42045;52.986;6.014;2023-04-25T00:48:28;6.10;99.90
56162;DHT22;42045;52.986;6.014;2023-04-25T00:50:57;6.10;99.90
56162;DHT22;42045;52.986;6.014;2023-04-25T00:53:24;6.10;99.90
56162;DHT22;42045;52.986;6.014;2023-04-25T00:55:51;6.20;99.90
56162;DHT22;42045;52.986;6.014;2023-04-25T00:58:18;6.20;99.90
56162;DHT22;42045;52.986;6.014;2023-04-25T01:00:46;6.20;99.90
56162;DHT22;42045;52.986;6.014;2023-04-25T01:03:13;6.20;99.90
56162;DHT22;42045;52.986;6.014;2023-04-25T01:05:41;6.20;99.90
56162;DHT22;42045;52.986;6.014;2023-04-25T01:08:07;6.20;99.90
56162;DHT22;42045;52.986;6.014;2023-04-25T01:10:32;6.30;99.90
56162;DHT22;42045;52.986;6.014;2023-04-25T01:12:58;6.30;99.90
56162;DHT22;42045;52.986;6.014;2023-04-25T01:15:24;6.30;99.90
56162;DHT22;42045;52.986;6.014;2023-04-25T01:17:50;6.30;99.90
56162;DHT22;42045;52.986;6.014;2023-04-25T01:20:15;6.30;99.90
56162;DHT22;42045;52.986;6.014;2023-04-25T01:22:42;6.30;99.90
56162;DHT22;42045;52.986;6.014;2023-04-25T01:25:08;6.30;99.90
56162;DHT22;42045;52.986;6.014;2023-04-25T01:27:36;6.20;99.90
56162;DHT22;42045;52.986;6.014;2023-04-25T01:30:03;6.20;99.90
56162;DHT22;42045;52.986;6.014;2023-04-25T01:32:30;6.20;99.90
56162;DHT22;42045;52.986;6.014;2023-04-25T01:35:04;6.20;99.90
56162;DHT22;42045;52.986;6.014;2023-04-25T01:37:36;6.20;99.90
56162;DHT22;42045;52.986;6.014;2023-04-25T01:40:02;6.20;99.90
56162;DHT22;42045;52.986;6.014;2023-04-25T01:42:27;6.20;99.90
56162;DHT22;42045;52.986;6.014;2023-04-25T01:44:53;6.20;99.90
56162;DHT22;42045;52.986;6.014;2023-04-25T01:47:19;6.20;99.90
56162;DHT22;42045;52.986;6.014;2023-04-25T01:49:44;6.10;99.90
56162;DHT22;42045;52.986;6.014;2023-04-25T01:52:10;6.20;99.90
56162;DHT22;42045;52.986;6.014;2023-04-25T01:54:36;6.20;99.90
56162;DHT22;42045;52.986;6.014;2023-04-25T01:57:01;6.10;99.90
56162;DHT22;42045;52.986;6.014;2023-04-25T01:59:27;6.10;99.90
56162;DHT22;42045;52.986;6.014;2023-04-25T02:01:52;6.10;99.90
56162;DHT22;42045;52.986;6.014;2023-04-25T02:04:18;6.10;99.90
56162;DHT22;42045;52.986;6.014;2023-04-25T02:06:44;6.10;99.90
56162;DHT22;42045;52.986;6.014;2023-04-25T02:09:09;6.10;99.90
56162;DHT22;42045;52.986;6.014;2023-04-25T02:11:35;6.10;99.90
56162;DHT22;42045;52.986;6.014;2023-04-25T02:14:01;6.00;99.90
56162;DHT22;42045;52.986;6.014;2023-04-25T02:16:26;6.00;99.90
56162;DHT22;42045;52.986;6.014;2023-04-25T02:18:52;6.00;99.90
56162;DHT22;42045;52.986;6.014;2023-04-25T02:21:18;5.90;99.90
56162;DHT22;42045;52.986;6.014;2023-04-25T02:23:44;5.90;99.90
56162;DHT22;42045;52.986;6.014;2023-04-25T02:26:12;5.90;99.90
56162;DHT22;42045;52.986;6.014;2023-04-25T02:28:38;5.90;99.90
56162;DHT22;42045;52.986;6.014;2023-04-25T02:31:04;5.90;99.90
56162;DHT22;42045;52.986;6.014;2023-04-25T02:33:30;5.80;99.90
56162;DHT22;42045;52.986;6.014;2023-04-25T02:35:55;5.80;99.90
56162;DHT22;42045;52.986;6.014;2023-04-25T02:38:21;5.70;99.90
56162;DHT22;42045;52.986;6.014;2023-04-25T02:40:47;5.70;99.90
56162;DHT22;42045;52.986;6.014;2023-04-25T02:43:12;5.70;99.90
56162;DHT22;42045;52.986;6.014;2023-04-25T02:45:38;5.70;99.90
56162;DHT22;42045;52.986;6.014;2023-04-25T02:48:04;5.70;99.90
56162;DHT22;42045;52.986;6.014;2023-04-25T02:50:30;5.70;99.90
56162;DHT22;42045;52.986;6.014;2023-04-25T02:52:58;5.70;99.90
56162;DHT22;42045;52.986;6.014;2023-04-25T02:55:24;5.70;99.90
56162;DHT22;42045;52.986;6.014;2023-04-25T02:57:50;5.70;99.90
56162;DHT22;42045;52.986;6.014;2023-04-25T03:00:15;5.60;99.90
56162;DHT22;42045;52.986;6.014;2023-04-25T03:02:41;5.70;99.90
56162;DHT22;42045;52.986;6.014;2023-04-25T03:05:07;5.60;99.90
56162;DHT22;42045;52.986;6.014;2023-04-25T03:07:32;5.60;99.90
56162;DHT22;42045;52.986;6.014;2023-04-25T03:09:58;5.60;99.90
56162;DHT22;42045;52.986;6.014;2023-04-25T03:12:24;5.60;99.90
56162;DHT22;42045;52.986;6.014;2023-04-25T03:14:50;5.60;99.90
56162;DHT22;42045;52.986;6.014;2023-04-25T03:17:15;5.60;99.90
56162;DHT22;42045;52.986;6.014;2023-04-25T03:19:41;5.60;99.90
56162;DHT22;42045;52.986;6.014;2023-04-25T03:22:07;5.50;99.90
56162;DHT22;42045;52.986;6.014;2023-04-25T03:24:32;5.50;99.90
56162;DHT22;42045;52.986;6.014;2023-04-25T03:26:58;5.40;99.90
56162;DHT22;42045;52.986;6.014;2023-04-25T03:29:23;5.40;99.90
56162;DHT22;42045;52.986;6.014;2023-04-25T03:31:51;5.40;99.90
56162;DHT22;42045;52.986;6.014;2023-04-25T03:34:17;5.40;99.90
56162;DHT22;42045;52.986;6.014;2023-04-25T03:36:43;5.50;99.90
56162;DHT22;42045;52.986;6.014;2023-04-25T03:39:08;5.50;99.90
56162;DHT22;42045;52.986;6.014;2023-04-25T03:41:34;5.50;99.90
56162;DHT22;42045;52.986;6.014;2023-04-25T03:43:59;5.40;99.90
56162;DHT22;42045;52.986;6.014;2023-04-25T03:46:25;5.40;99.90
56162;DHT22;42045;52.986;6.014;2023-04-25T03:48:51;5.50;99.90
56162;DHT22;42045;52.986;6.014;2023-04-25T03:51:17;5.50;99.90
56162;DHT22;42045;52.986;6.014;2023-04-25T03:53:42;5.50;99.90
56162;DHT22;42045;52.986;6.014;2023-04-25T03:56:08;5.50;99.90
56162;DHT22;42045;52.986;6.014;2023-04-25T03:58:34;5.50;99.90
56162;DHT22;42045;52.986;6.014;2023-04-25T04:01:00;5.50;99.90
56162;DHT22;42045;52.986;6.014;2023-04-25T04:03:31;5.50;99.90
56162;DHT22;42045;52.986;6.014;2023-04-25T04:05:57;5.50;99.90
56162;DHT22;42045;52.986;6.014;2023-04-25T04:08:22;5.40;99.90
56162;DHT22;42045;52.986;6.014;2023-04-25T04:10:48;5.50;99.90
56162;DHT22;42045;52.986;6.014;2023-04-25T04:13:13;5.50;99.90
56162;DHT22;42045;52.986;6.014;2023-04-25T04:15:39;5.50;99.90
56162;DHT22;42045;52.986;6.014;2023-04-25T04:18:05;5.50;99.90
56162;DHT22;42045;52.986;6.014;2023-04-25T04:20:31;5.50;99.90
56162;DHT22;42045;52.986;6.014;2023-04-25T04:22:57;5.50;99.90
56162;DHT22;42045;52.986;6.014;2023-04-25T04:25:22;5.50;99.90
56162;DHT22;42045;52.986;6.014;2023-04-25T04:27:50;5.50;99.90
56162;DHT22;42045;52.986;6.014;2023-04-25T04:30:23;5.50;99.90
56162;DHT22;42045;52.986;6.014;2023-04-25T04:32:55;5.50;99.90
56162;DHT22;42045;52.986;6.014;2023-04-25T04:35:22;5.50;99.90
56162;DHT22;42045;52.986;6.014;2023-04-25T04:37:49;5.50;99.90
56162;DHT22;42045;52.986;6.014;2023-04-25T04:40:15;5.40;99.90
56162;DHT22;42045;52.986;6.014;2023-04-25T04:42:42;5.40;99.90
56162;DHT22;42045;52.986;6.014;2023-04-25T04:45:08;5.40;99.90
56162;DHT22;42045;52.986;6.014;2023-04-25T04:47:35;5.40;99.90
56162;DHT22;42045;52.986;6.014;2023-04-25T04:50:03;5.40;99.90
56162;DHT22;42045;52.986;6.014;2023-04-25T04:52:30;5.60;99.90
56162;DHT22;42045;52.986;6.014;2023-04-25T04:54:58;5.70;99.90
56162;DHT22;42045;52.986;6.014;2023-04-25T04:57:24;5.80;99.90
56162;DHT22;42045;52.986;6.014;2023-04-25T04:59:50;5.90;99.90
56162;DHT22;42045;52.986;6.014;2023-04-25T05:02:15;5.90;99.90
56162;DHT22;42045;52.986;6.014;2023-04-25T05:04:41;5.90;99.90
56162;DHT22;42045;52.986;6.014;2023-04-25T05:07:07;5.90;99.90
56162;DHT22;42045;52.986;6.014;2023-04-25T05:09:32;5.80;99.90
56162;DHT22;42045;52.986;6.014;2023-04-25T05:11:58;5.80;99.90
56162;DHT22;42045;52.986;6.014;2023-04-25T05:14:24;5.70;99.90
56162;DHT22;42045;52.986;6.014;2023-04-25T05:16:49;5.70;99.90
56162;DHT22;42045;52.986;6.014;2023-04-25T05:19:15;5.70;99.90
56162;DHT22;42045;52.986;6.014;2023-04-25T05:21:40;5.70;99.90
56162;DHT22;42045;52.986;6.014;2023-04-25T05:24:06;5.80;99.90
56162;DHT22;42045;52.986;6.014;2023-04-25T05:26:32;5.80;99.90
56162;DHT22;42045;52.986;6.014;2023-04-25T05:28:58;5.80;99.90
56162;DHT22;42045;52.986;6.014;2023-04-25T05:31:23;5.80;99.90
56162;DHT22;42045;52.986;6.014;2023-04-25T05:33:49;5.90;99.90
56162;DHT22;42045;52.986;6.014;2023-04-25T05:36:15;5.90;99.90
56162;DHT22;42045;52.986;6.014;2023-04-25T05:38:40;6.00;99.90
56162;DHT22;42045;52.986;6.014;2023-04-25T05:41:07;6.00;99.90
56162;DHT22;42045;52.986;6.014;2023-04-25T05:43:32;6.10;99.90
56162;DHT22;42045;52.986;6.014;2023-04-25T05:45:58;6.10;99.90
56162;DHT22;42045;52.986;6.014;2023-04-25T05:48:24;6.10;99.90
56162;DHT22;42045;52.986;6.014;2023-04-25T05:50:50;6.20;99.90
56162;DHT22;42045;52.986;6.014;2023-04-25T05:53:17;6.20;99.90
56162;DHT22;42045;52.986;6.014;2023-04-25T05:55:43;7.20;99.90
56162;DHT22;42045;52.986;6.014;2023-04-25T05:58:08;9.10;99.90
56162;DHT22;42045;52.986;6.014;2023-04-25T06:00:34;11.00;99.90
56162;DHT22;42045;52.986;6.014;2023-04-25T06:03:00;12.40;99.90
56162;DHT22;42045;52.986;6.014;2023-04-25T06:05:26;13.80;99.90
56162;DHT22;42045;52.986;6.014;2023-04-25T06:07:52;15.00;99.90
56162;DHT22;42045;52.986;6.014;2023-04-25T06:10:18;16.00;99.90
56162;DHT22;42045;52.986;6.014;2023-04-25T06:12:44;16.10;99.90
56162;DHT22;42045;52.986;6.014;2023-04-25T06:15:10;15.20;99.90
56162;DHT22;42045;52.986;6.014;2023-04-25T06:17:35;13.80;99.90
56162;DHT22;42045;52.986;6.014;2023-04-25T06:20:01;12.70;99.90
56162;DHT22;42045;52.986;6.014;2023-04-25T06:22:28;11.70;99.90
56162;DHT22;42045;52.986;6.014;2023-04-25T06:24:54;11.10;99.90
56162;DHT22;42045;52.986;6.014;2023-04-25T06:27:22;10.70;99.90
56162;DHT22;42045;52.986;6.014;2023-04-25T06:29:48;10.50;99.90
56162;DHT22;42045;52.986;6.014;2023-04-25T06:32:13;10.10;99.90
56162;DHT22;42045;52.986;6.014;2023-04-25T06:34:39;9.80;99.90
56162;DHT22;42045;52.986;6.014;2023-04-25T06:37:05;9.90;99.90
56162;DHT22;42045;52.986;6.014;2023-04-25T06:39:30;10.00;99.90
56162;DHT22;42045;52.986;6.014;2023-04-25T06:41:56;10.60;99.90
56162;DHT22;42045;52.986;6.014;2023-04-25T06:44:22;11.20;99.90
56162;DHT22;42045;52.986;6.014;2023-04-25T06:46:49;12.40;99.90
56162;DHT22;42045;52.986;6.014;2023-04-25T06:49:15;13.90;99.90
56162;DHT22;42045;52.986;6.014;2023-04-25T06:51:41;15.30;99.90
56162;DHT22;42045;52.986;6.014;2023-04-25T06:54:06;16.50;99.90
56162;DHT22;42045;52.986;6.014;2023-04-25T06:56:32;16.80;99.90
56162;DHT22;42045;52.986;6.014;2023-04-25T06:58:58;15.90;99.90
56162;DHT22;42045;52.986;6.014;2023-04-25T07:01:25;15.50;99.90
56162;DHT22;42045;52.986;6.014;2023-04-25T07:03:51;14.90;99.90
56162;DHT22;42045;52.986;6.014;2023-04-25T07:06:17;14.30;99.90
56162;DHT22;42045;52.986;6.014;2023-04-25T07:08:43;13.70;99.90
56162;DHT22;42045;52.986;6.014;2023-04-25T07:11:08;13.60;99.90
56162;DHT22;42045;52.986;6.014;2023-04-25T07:13:34;13.90;99.90
56162;DHT22;42045;52.986;6.014;2023-04-25T07:16:00;14.00;99.90
56162;DHT22;42045;52.986;6.014;2023-04-25T07:18:26;14.00;99.90
56162;DHT22;42045;52.986;6.014;2023-04-25T07:20:51;14.20;99.90
56162;DHT22;42045;52.986;6.014;2023-04-25T07:23:17;13.90;99.90
56162;DHT22;42045;52.986;6.014;2023-04-25T07:25:43;13.00;99.90
56162;DHT22;42045;52.986;6.014;2023-04-25T07:28:08;11.30;99.90
56162;DHT22;42045;52.986;6.014;2023-04-25T07:30:34;10.40;99.90
56162;DHT22;42045;52.986;6.014;2023-04-25T07:33:00;9.40;99.90
56162;DHT22;42045;52.986;6.014;2023-04-25T07:35:26;8.90;99.90
56162;DHT22;42045;52.986;6.014;2023-04-25T07:37:51;8.60;99.90
56162;DHT22;42045;52.986;6.014;2023-04-25T07:40:17;8.50;99.90
56162;DHT22;42045;52.986;6.014;2023-04-25T07:42:43;8.60;99.90
56162;DHT22;42045;52.986;6.014;2023-04-25T07:45:09;8.80;99.90
56162;DHT22;42045;52.986;6.014;2023-04-25T07:47:35;9.00;99.90
56162;DHT22;42045;52.986;6.014;2023-04-25T07:50:02;9.20;99.90
56162;DHT22;42045;52.986;6.014;2023-04-25T07:52:28;9.40;99.90
56162;DHT22;42045;52.986;6.014;2023-04-25T07:54:54;9.70;99.90
56162;DHT22;42045;52.986;6.014;2023-04-25T07:57:20;10.00;99.90
56162;DHT22;42045;52.986;6.014;2023-04-25T07:59:46;10.20;99.90
56162;DHT22;42045;52.986;6.014;2023-04-25T08:02:11;10.40;99.90
56162;DHT22;42045;52.986;6.014;2023-04-25T08:04:37;10.40;99.90
56162;DHT22;42045;52.986;6.014;2023-04-25T08:07:02;10.40;99.90
56162;DHT22;42045;52.986;6.014;2023-04-25T08:09:28;10.30;99.90
56162;DHT22;42045;52.986;6.014;2023-04-25T08:11:59;10.50;99.90
56162;DHT22;42045;52.986;6.014;2023-04-25T08:14:26;10.90;99.90
56162;DHT22;42045;52.986;6.014;2023-04-25T08:16:51;11.00;99.90
56162;DHT22;42045;52.986;6.014;2023-04-25T08:19:17;11.00;99.90
56162;DHT22;42045;52.986;6.014;2023-04-25T08:21:43;11.00;99.90
56162;DHT22;42045;52.986;6.014;2023-04-25T08:24:08;11.00;99.90
56162;DHT22;42045;52.986;6.014;2023-04-25T08:26:34;10.90;99.90
56162;DHT22;42045;52.986;6.014;2023-04-25T08:29:02;10.90;99.90
56162;DHT22;42045;52.986;6.014;2023-04-25T08:31:28;11.10;99.90
56162;DHT22;42045;52.986;6.014;2023-04-25T08:33:54;11.00;99.90
56162;DHT22;42045;52.986;6.014;2023-04-25T08:36:19;10.90;99.90
56162;DHT22;42045;52.986;6.014;2023-04-25T08:38:45;11.00;99.90
56162;DHT22;42045;52.986;6.014;2023-04-25T08:41:11;11.30;99.90
56162;DHT22;42045;52.986;6.014;2023-04-25T08:43:37;11.50;99.90
56162;DHT22;42045;52.986;6.014;2023-04-25T08:46:08;11.50;99.90
56162;DHT22;42045;52.986;6.014;2023-04-25T08:48:34;11.60;99.90
56162;DHT22;42045;52.986;6.014;2023-04-25T08:51:02;11.70;99.90
56162;DHT22;42045;52.986;6.014;2023-04-25T08:53:30;11.90;99.90
56162;DHT22;42045;52.986;6.014;2023-04-25T08:55:57;12.00;99.90
56162;DHT22;42045;52.986;6.014;2023-04-25T08:58:23;12.30;99.90
56162;DHT22;42045;52.986;6.014;2023-04-25T09:00:50;12.50;99.90
56162;DHT22;42045;52.986;6.014;2023-04-25T09:03:17;12.50;99.90
56162;DHT22;42045;52.986;6.014;2023-04-25T09:05:43;12.60;99.90
56162;DHT22;42045;52.986;6.014;2023-04-25T09:08:09;12.80;99.90
56162;DHT22;42045;52.986;6.014;2023-04-25T09:10:36;12.90;99.90
56162;DHT22;42045;52.986;6.014;2023-04-25T09:13:06;12.50;99.90
56162;DHT22;42045;52.986;6.014;2023-04-25T09:15:53;12.60;99.90
56162;DHT22;42045;52.986;6.014;2023-04-25T09:18:29;12.40;99.90
56162;DHT22;42045;52.986;6.014;2023-04-25T09:21:05;12.00;99.90
56162;DHT22;42045;52.986;6.014;2023-04-25T09:23:39;11.50;99.90
56162;DHT22;42045;52.986;6.014;2023-04-25T09:26:07;11.10;99.90
56162;DHT22;42045;52.986;6.014;2023-04-25T09:28:33;10.90;99.90
56162;DHT22;42045;52.986;6.014;2023-04-25T09:31:00;10.50;99.90
56162;DHT22;42045;52.986;6.014;2023-04-25T09:33:31;10.30;99.90
56162;DHT22;42045;52.986;6.014;2023-04-25T09:36:06;10.40;99.90
56162;DHT22;42045;52.986;6.014;2023-04-25T09:38:46;10.60;99.90
56162;DHT22;42045;52.986;6.014;2023-04-25T09:41:12;10.90;99.90
56162;DHT22;42045;52.986;6.014;2023-04-25T09:43:39;11.00;99.90
56162;DHT22;42045;52.986;6.014;2023-04-25T09:46:09;11.00;99.90
56162;DHT22;42045;52.986;6.014;2023-04-25T09:48:35;10.60;99.90
56162;DHT22;42045;52.986;6.014;2023-04-25T09:51:12;10.20;99.90
56162;DHT22;42045;52.986;6.014;2023-04-25T09:53:48;10.10;99.90
56162;DHT22;42045;52.986;6.014;2023-04-25T09:56:16;10.00;99.90
56162;DHT22;42045;52.986;6.014;2023-04-25T09:58:42;10.10;99.90
56162;DHT22;42045;52.986;6.014;2023-04-25T10:01:11;10.10;99.90
56162;DHT22;42045;52.986;6.014;2023-04-25T10:03:38;10.20;99.90
56162;DHT22;42045;52.986;6.014;2023-04-25T10:06:09;10.10;99.90
56162;DHT22;42045;52.986;6.014;2023-04-25T10:08:38;10.20;99.90
56162;DHT22;42045;52.986;6.014;2023-04-25T10:11:07;10.30;99.90
56162;DHT22;42045;52.986;6.014;2023-04-25T10:13:34;10.50;99.90
56162;DHT22;42045;52.986;6.014;2023-04-25T10:16:04;10.80;99.90
56162;DHT22;42045;52.986;6.014;2023-04-25T10:18:31;11.00;99.90
56162;DHT22;42045;52.986;6.014;2023-04-25T10:21:02;11.10;99.90
56162;DHT22;42045;52.986;6.014;2023-04-25T10:23:30;11.30;99.90
56162;DHT22;42045;52.986;6.014;2023-04-25T10:25:56;11.60;99.90
56162;DHT22;42045;52.986;6.014;2023-04-25T10:28:22;11.80;99.90
56162;DHT22;42045;52.986;6.014;2023-04-25T10:31:02;11.90;99.90
56162;DHT22;42045;52.986;6.014;2023-04-25T10:33:38;12.00;99.90
56162;DHT22;42045;52.986;6.014;2023-04-25T10:36:15;12.30;99.90
56162;DHT22;42045;52.986;6.014;2023-04-25T10:38:44;12.20;99.90
56162;DHT22;42045;52.986;6.014;2023-04-25T10:41:11;12.30;99.90
56162;DHT22;42045;52.986;6.014;2023-04-25T10:48:50;12.50;99.90
56162;DHT22;42045;52.986;6.014;2023-04-25T10:53:48;12.60;99.90
56162;DHT22;42045;52.986;6.014;2023-04-25T10:56:38;12.50;99.90
56162;DHT22;42045;52.986;6.014;2023-04-25T10:59:17;12.40;99.90
56162;DHT22;42045;52.986;6.014;2023-04-25T11:01:48;12.50;99.90
56162;DHT22;42045;52.986;6.014;2023-04-25T11:04:21;12.40;99.90
56162;DHT22;42045;52.986;6.014;2023-04-25T11:09:30;12.70;99.90
56162;DHT22;42045;52.986;6.014;2023-04-25T11:11:59;13.10;99.90
56162;DHT22;42045;52.986;6.014;2023-04-25T11:14:26;13.20;99.90
56162;DHT22;42045;52.986;6.014;2023-04-25T11:16:57;12.70;99.90
56162;DHT22;42045;52.986;6.014;2023-04-25T11:19:24;12.60;99.90
56162;DHT22;42045;52.986;6.014;2023-04-25T11:21:50;11.70;99.90
56162;DHT22;42045;52.986;6.014;2023-04-25T11:24:18;11.10;99.90
56162;DHT22;42045;52.986;6.014;2023-04-25T11:26:47;10.40;99.90
56162;DHT22;42045;52.986;6.014;2023-04-25T11:29:15;10.30;99.90
56162;DHT22;42045;52.986;6.014;2023-04-25T11:31:44;10.30;99.90
56162;DHT22;42045;52.986;6.014;2023-04-25T11:34:20;10.40;99.90
56162;DHT22;42045;52.986;6.014;2023-04-25T11:36:46;10.50;99.90
56162;DHT22;42045;52.986;6.014;2023-04-25T11:39:12;10.90;99.90
56162;DHT22;42045;52.986;6.014;2023-04-25T11:41:38;11.00;99.90
56162;DHT22;42045;52.986;6.014;2023-04-25T11:44:04;11.30;99.90
56162;DHT22;42045;52.986;6.014;2023-04-25T11:46:30;11.30;99.90
56162;DHT22;42045;52.986;6.014;2023-04-25T11:48:59;11.30;99.90
56162;DHT22;42045;52.986;6.014;2023-04-25T11:51:24;11.30;99.90
56162;DHT22;42045;52.986;6.014;2023-04-25T11:53:51;11.30;99.90
56162;DHT22;42045;52.986;6.014;2023-04-25T11:56:17;11.20;99.90
56162;DHT22;42045;52.986;6.014;2023-04-25T11:59:04;11.30;99.90
56162;DHT22;42045;52.986;6.014;2023-04-25T12:01:35;11.60;99.90
56162;DHT22;42045;52.986;6.014;2023-04-25T12:04:18;11.90;99.90
56162;DHT22;42045;52.986;6.014;2023-04-25T12:06:44;12.10;99.90
56162;DHT22;42045;52.986;6.014;2023-04-25T12:09:14;12.40;99.90
56162;DHT22;42045;52.986;6.014;2023-04-25T12:11:48;12.50;99.90
56162;DHT22;42045;52.986;6.014;2023-04-25T12:14:31;12.20;99.90
56162;DHT22;42045;52.986;6.014;2023-04-25T12:16:59;12.00;99.90
56162;DHT22;42045;52.986;6.014;2023-04-25T12:19:26;11.60;99.90
56162;DHT22;42045;52.986;6.014;2023-04-25T12:21:52;11.50;99.90
56162;DHT22;42045;52.986;6.014;2023-04-25T12:24:23;11.30;99.90
56162;DHT22;42045;52.986;6.014;2023-04-25T12:26:59;11.10;99.90
56162;DHT22;42045;52.986;6.014;2023-04-25T12:29:28;10.90;99.90
56162;DHT22;42045;52.986;6.014;2023-04-25T12:31:54;10.80;99.90
56162;DHT22;42045;52.986;6.014;2023-04-25T12:34:21;10.90;99.90
56162;DHT22;42045;52.986;6.014;2023-04-25T12:36:48;10.90;99.90
56162;DHT22;42045;52.986;6.014;2023-04-25T12:39:18;10.90;99.90
56162;DHT22;42045;52.986;6.014;2023-04-25T12:41:47;10.90;99.90
56162;DHT22;42045;52.986;6.014;2023-04-25T12:44:13;11.20;99.90
56162;DHT22;42045;52.986;6.014;2023-04-25T12:46:40;11.50;99.90
56162;DHT22;42045;52.986;6.014;2023-04-25T12:49:06;11.90;99.90
56162;DHT22;42045;52.986;6.014;2023-04-25T12:51:33;12.30;99.90
56162;DHT22;42045;52.986;6.014;2023-04-25T12:54:00;12.60;99.90
56162;DHT22;42045;52.986;6.014;2023-04-25T12:56:29;12.90;99.90
56162;DHT22;42045;52.986;6.014;2023-04-25T12:58:54;12.90;99.90
56162;DHT22;42045;52.986;6.014;2023-04-25T13:01:21;12.80;99.90
56162;DHT22;42045;52.986;6.014;2023-04-25T13:03:47;12.40;99.90
56162;DHT22;42045;52.986;6.014;2023-04-25T13:06:13;12.10;99.90
56162;DHT22;42045;52.986;6.014;2023-04-25T13:08:39;11.90;99.90
56162;DHT22;42045;52.986;6.014;2023-04-25T13:11:06;11.70;99.90
56162;DHT22;42045;52.986;6.014;2023-04-25T13:13:32;11.70;99.90
56162;DHT22;42045;52.986;6.014;2023-04-25T13:16:03;11.70;99.90
56162;DHT22;42045;52.986;6.014;2023-04-25T13:18:30;11.60;99.90
56162;DHT22;42045;52.986;6.014;2023-04-25T13:20:57;11.70;99.90
56162;DHT22;42045;52.986;6.014;2023-04-25T13:23:24;11.50;99.90
56162;DHT22;42045;52.986;6.014;2023-04-25T13:25:50;11.50;99.90
56162;DHT22;42045;52.986;6.014;2023-04-25T13:28:16;11.40;99.90
56162;DHT22;42045;52.986;6.014;2023-04-25T13:30:42;11.50;99.90
56162;DHT22;42045;52.986;6.014;2023-04-25T13:33:08;11.50;99.90
56162;DHT22;42045;52.986;6.014;2023-04-25T13:35:34;11.30;99.90
56162;DHT22;42045;52.986;6.014;2023-04-25T13:38:00;11.40;99.90
56162;DHT22;42045;52.986;6.014;2023-04-25T13:40:26;11.50;99.90
56162;DHT22;42045;52.986;6.014;2023-04-25T13:42:52;11.60;99.90
56162;DHT22;42045;52.986;6.014;2023-04-25T13:45:19;11.40;99.90
56162;DHT22;42045;52.986;6.014;2023-04-25T13:47:45;11.30;99.90
56162;DHT22;42045;52.986;6.014;2023-04-25T13:50:11;11.10;99.90
56162;DHT22;42045;52.986;6.014;2023-04-25T13:52:36;11.10;99.90
56162;DHT22;42045;52.986;6.014;2023-04-25T13:55:02;11.20;99.90
56162;DHT22;42045;52.986;6.014;2023-04-25T13:57:30;11.20;99.90
56162;DHT22;42045;52.986;6.014;2023-04-25T13:59:56;11.00;99.90
56162;DHT22;42045;52.986;6.014;2023-04-25T14:02:22;10.90;99.90
56162;DHT22;42045;52.986;6.014;2023-04-25T14:04:47;10.90;99.90
56162;DHT22;42045;52.986;6.014;2023-04-25T14:07:14;10.90;99.90
56162;DHT22;42045;52.986;6.014;2023-04-25T14:09:43;10.70;99.90
56162;DHT22;42045;52.986;6.014;2023-04-25T14:12:09;10.60;99.90
56162;DHT22;42045;52.986;6.014;2023-04-25T14:14:35;10.40;99.90
56162;DHT22;42045;52.986;6.014;2023-04-25T14:17:01;10.30;99.90
56162;DHT22;42045;52.986;6.014;2023-04-25T14:19:27;10.10;99.90
56162;DHT22;42045;52.986;6.014;2023-04-25T14:21:54;10.20;99.90
56162;DHT22;42045;52.986;6.014;2023-04-25T14:24:19;10.30;99.90
56162;DHT22;42045;52.986;6.014;2023-04-25T14:26:45;10.70;99.90
56162;DHT22;42045;52.986;6.014;2023-04-25T14:29:11;10.90;99.90
56162;DHT22;42045;52.986;6.014;2023-04-25T14:31:38;11.00;99.90
56162;DHT22;42045;52.986;6.014;2023-04-25T14:34:06;10.90;99.90
56162;DHT22;42045;52.986;6.014;2023-04-25T14:36:33;10.60;99.90
56162;DHT22;42045;52.986;6.014;2023-04-25T14:38:59;10.30;99.90
56162;DHT22;42045;52.986;6.014;2023-04-25T14:41:25;10.00;99.90
56162;DHT22;42045;52.986;6.014;2023-04-25T14:43:52;9.70;99.90
56162;DHT22;42045;52.986;6.014;2023-04-25T14:46:19;9.30;99.90
56162;DHT22;42045;52.986;6.014;2023-04-25T14:48:45;8.90;99.90
56162;DHT22;42045;52.986;6.014;2023-04-25T14:51:11;8.60;99.90
56162;DHT22;42045;52.986;6.014;2023-04-25T14:53:36;8.70;99.90
56162;DHT22;42045;52.986;6.014;2023-04-25T14:56:02;8.70;99.90
56162;DHT22;42045;52.986;6.014;2023-04-25T14:58:28;8.70;99.90
56162;DHT22;42045;52.986;6.014;2023-04-25T15:00:54;8.90;99.90
56162;DHT22;42045;52.986;6.014;2023-04-25T15:03:20;9.00;99.90
56162;DHT22;42045;52.986;6.014;2023-04-25T15:05:46;9.20;99.90
56162;DHT22;42045;52.986;6.014;2023-04-25T15:08:12;9.30;99.90
56162;DHT22;42045;52.986;6.014;2023-04-25T15:10:37;9.30;99.90
56162;DHT22;42045;52.986;6.014;2023-04-25T15:13:03;9.10;99.90
56162;DHT22;42045;52.986;6.014;2023-04-25T15:15:29;9.10;99.90
56162;DHT22;42045;52.986;6.014;2023-04-25T15:17:56;9.20;99.90
56162;DHT22;42045;52.986;6.014;2023-04-25T15:20:22;9.20;99.90
56162;DHT22;42045;52.986;6.014;2023-04-25T15:22:48;9.20;99.90
56162;DHT22;42045;52.986;6.014;2023-04-25T15:25:15;9.20;99.90
56162;DHT22;42045;52.986;6.014;2023-04-25T15:27:43;9.30;99.90
56162;DHT22;42045;52.986;6.014;2023-04-25T15:30:12;9.40;99.90
56162;DHT22;42045;52.986;6.014;2023-04-25T15:32:43;9.40;99.90
56162;DHT22;42045;52.986;6.014;2023-04-25T15:35:10;9.40;99.90
56162;DHT22;42045;52.986;6.014;2023-04-25T15:37:36;9.40;99.90
56162;DHT22;42045;52.986;6.014;2023-04-25T15:40:05;9.40;99.90
56162;DHT22;42045;52.986;6.014;2023-04-25T15:42:52;9.50;99.90
56162;DHT22;42045;52.986;6.014;2023-04-25T15:45:20;9.60;99.90
56162;DHT22;42045;52.986;6.014;2023-04-25T15:47:46;9.80;99.90